sensor_id;sensor_type;location;lat;lon;timestamp;P1;durP1;ratioP1;P2;durP2;ratioP2
39050;SDS011;24805;55.852;37.644;2023-08-07T00:00:05;11.70;;;5.20;;
39050;SDS011;24805;55.852;37.644;2023-08-07T00:05:11;12.45;;;5.40;;
39050;SDS011;24805;55.852;37.644;2023-08-07T00:10:13;9.00;;;5.85;;
39050;SDS011;24805;55.852;37.644;2023-08-07T00:15:16;14.35;;;7.70;;
39050;SDS011;24805;55.852;37.644;2023-08-07T00:20:18;16.08;;;7.22;;
39050;SDS011;24805;55.852;37.644;2023-08-07T00:25:21;6.45;;;4.40;;
39050;SDS011;24805;55.852;37.644;2023-08-07T00:30:25;11.13;;;5.25;;
39050;SDS011;24805;55.852;37.644;2023-08-07T00:35:28;9.05;;;4.50;;
39050;SDS011;24805;55.852;37.644;2023-08-07T00:40:37;8.38;;;4.63;;
39050;SDS011;24805;55.852;37.644;2023-08-07T00:45:45;8.38;;;4.35;;
39050;SDS011;24805;55.852;37.644;2023-08-07T00:50:49;13.35;;;6.50;;
39050;SDS011;24805;55.852;37.644;2023-08-07T00:55:53;13.18;;;5.20;;
39050;SDS011;24805;55.852;37.644;2023-08-07T01:00:55;11.38;;;6.03;;
39050;SDS011;24805;55.852;37.644;2023-08-07T01:05:58;12.98;;;8.18;;
39050;SDS011;24805;55.852;37.644;2023-08-07T01:16:45;9.43;;;6.10;;
39050;SDS011;24805;55.852;37.644;2023-08-07T01:22:03;8.33;;;5.03;;
39050;SDS011;24805;55.852;37.644;2023-08-07T01:27:23;8.38;;;5.43;;
39050;SDS011;24805;55.852;37.644;2023-08-07T01:37:38;18.55;;;7.68;;
39050;SDS011;24805;55.852;37.644;2023-08-07T01:42:43;17.77;;;9.40;;
39050;SDS011;24805;55.852;37.644;2023-08-07T01:47:46;16.65;;;9.00;;
39050;SDS011;24805;55.852;37.644;2023-08-07T01:52:49;18.00;;;8.93;;
39050;SDS011;24805;55.852;37.644;2023-08-07T01:57:52;14.90;;;7.45;;
39050;SDS011;24805;55.852;37.644;2023-08-07T02:02:54;12.10;;;6.53;;
39050;SDS011;24805;55.852;37.644;2023-08-07T02:07:57;14.02;;;7.65;;
39050;SDS011;24805;55.852;37.644;2023-08-07T02:13:00;12.32;;;7.63;;
39050;SDS011;24805;55.852;37.644;2023-08-07T02:18:03;16.63;;;8.57;;
39050;SDS011;24805;55.852;37.644;2023-08-07T02:23:06;18.48;;;8.30;;
39050;SDS011;24805;55.852;37.644;2023-08-07T02:28:08;14.13;;;8.15;;
39050;SDS011;24805;55.852;37.644;2023-08-07T02:33:10;12.98;;;7.60;;
39050;SDS011;24805;55.852;37.644;2023-08-07T02:38:13;18.52;;;7.45;;
39050;SDS011;24805;55.852;37.644;2023-08-07T02:43:15;23.50;;;7.18;;
39050;SDS011;24805;55.852;37.644;2023-08-07T02:48:18;12.52;;;6.38;;
39050;SDS011;24805;55.852;37.644;2023-08-07T02:53:21;21.50;;;5.90;;
39050;SDS011;24805;55.852;37.644;2023-08-07T02:58:23;18.33;;;8.60;;
39050;SDS011;24805;55.852;37.644;2023-08-07T03:03:25;17.63;;;7.13;;
39050;SDS011;24805;55.852;37.644;2023-08-07T03:08:28;12.60;;;7.88;;
39050;SDS011;24805;55.852;37.644;2023-08-07T03:13:30;20.27;;;7.93;;
39050;SDS011;24805;55.852;37.644;2023-08-07T03:18:32;17.52;;;8.38;;
39050;SDS011;24805;55.852;37.644;2023-08-07T03:23:36;19.38;;;8.02;;
39050;SDS011;24805;55.852;37.644;2023-08-07T03:28:40;12.35;;;5.70;;
39050;SDS011;24805;55.852;37.644;2023-08-07T03:33:43;13.38;;;6.70;;
39050;SDS011;24805;55.852;37.644;2023-08-07T03:38:47;11.27;;;5.15;;
39050;SDS011;24805;55.852;37.644;2023-08-07T03:43:49;8.60;;;5.35;;
39050;SDS011;24805;55.852;37.644;2023-08-07T03:48:52;6.70;;;4.70;;
39050;SDS011;24805;55.852;37.644;2023-08-07T03:53:55;8.82;;;4.10;;
39050;SDS011;24805;55.852;37.644;2023-08-07T03:58:57;9.88;;;4.50;;
39050;SDS011;24805;55.852;37.644;2023-08-07T04:04:00;4.57;;;3.80;;
39050;SDS011;24805;55.852;37.644;2023-08-07T04:09:02;6.82;;;4.07;;
39050;SDS011;24805;55.852;37.644;2023-08-07T04:14:05;8.30;;;4.00;;
39050;SDS011;24805;55.852;37.644;2023-08-07T04:19:07;9.05;;;3.22;;
39050;SDS011;24805;55.852;37.644;2023-08-07T04:24:10;6.05;;;3.42;;
39050;SDS011;24805;55.852;37.644;2023-08-07T04:29:13;4.63;;;2.92;;
39050;SDS011;24805;55.852;37.644;2023-08-07T04:34:15;7.18;;;3.22;;
39050;SDS011;24805;55.852;37.644;2023-08-07T04:39:18;4.85;;;3.10;;
39050;SDS011;24805;55.852;37.644;2023-08-07T04:44:20;9.43;;;2.83;;
39050;SDS011;24805;55.852;37.644;2023-08-07T04:49:23;3.35;;;2.80;;
39050;SDS011;24805;55.852;37.644;2023-08-07T04:54:25;8.77;;;3.35;;
39050;SDS011;24805;55.852;37.644;2023-08-07T04:59:27;7.35;;;2.85;;
39050;SDS011;24805;55.852;37.644;2023-08-07T05:04:31;7.15;;;2.80;;
39050;SDS011;24805;55.852;37.644;2023-08-07T05:09:34;8.32;;;3.30;;
39050;SDS011;24805;55.852;37.644;2023-08-07T05:14:36;5.90;;;2.78;;
39050;SDS011;24805;55.852;37.644;2023-08-07T05:19:39;6.38;;;2.72;;
39050;SDS011;24805;55.852;37.644;2023-08-07T05:24:41;5.78;;;2.60;;
39050;SDS011;24805;55.852;37.644;2023-08-07T05:29:45;8.10;;;2.97;;
39050;SDS011;24805;55.852;37.644;2023-08-07T05:34:48;6.57;;;2.67;;
39050;SDS011;24805;55.852;37.644;2023-08-07T05:39:50;5.55;;;2.42;;
39050;SDS011;24805;55.852;37.644;2023-08-07T05:44:53;5.63;;;2.00;;
39050;SDS011;24805;55.852;37.644;2023-08-07T05:49:55;4.55;;;2.25;;
39050;SDS011;24805;55.852;37.644;2023-08-07T05:54:58;13.38;;;3.17;;
39050;SDS011;24805;55.852;37.644;2023-08-07T06:00:00;15.43;;;3.45;;
39050;SDS011;24805;55.852;37.644;2023-08-07T06:05:13;6.45;;;2.25;;
39050;SDS011;24805;55.852;37.644;2023-08-07T06:10:17;11.45;;;3.05;;
39050;SDS011;24805;55.852;37.644;2023-08-07T06:15:20;8.80;;;2.17;;
39050;SDS011;24805;55.852;37.644;2023-08-07T06:20:22;5.05;;;1.88;;
39050;SDS011;24805;55.852;37.644;2023-08-07T06:25:25;4.55;;;1.45;;
39050;SDS011;24805;55.852;37.644;2023-08-07T06:30:27;9.60;;;2.35;;
39050;SDS011;24805;55.852;37.644;2023-08-07T06:35:30;12.65;;;2.70;;
39050;SDS011;24805;55.852;37.644;2023-08-07T06:40:34;3.22;;;1.75;;
39050;SDS011;24805;55.852;37.644;2023-08-07T06:45:37;3.67;;;1.40;;
39050;SDS011;24805;55.852;37.644;2023-08-07T06:50:39;5.70;;;2.75;;
39050;SDS011;24805;55.852;37.644;2023-08-07T06:55:42;5.18;;;1.58;;
39050;SDS011;24805;55.852;37.644;2023-08-07T07:00:45;4.75;;;1.85;;
39050;SDS011;24805;55.852;37.644;2023-08-07T07:05:48;9.23;;;1.80;;
39050;SDS011;24805;55.852;37.644;2023-08-07T07:10:51;10.02;;;4.88;;
39050;SDS011;24805;55.852;37.644;2023-08-07T07:15:54;4.90;;;1.38;;
39050;SDS011;24805;55.852;37.644;2023-08-07T07:20:58;4.05;;;1.00;;
39050;SDS011;24805;55.852;37.644;2023-08-07T07:26:02;3.22;;;1.17;;
39050;SDS011;24805;55.852;37.644;2023-08-07T07:31:04;11.48;;;1.70;;
39050;SDS011;24805;55.852;37.644;2023-08-07T07:36:07;4.85;;;1.17;;
39050;SDS011;24805;55.852;37.644;2023-08-07T07:41:15;4.72;;;0.88;;
39050;SDS011;24805;55.852;37.644;2023-08-07T07:46:18;5.93;;;1.20;;
39050;SDS011;24805;55.852;37.644;2023-08-07T07:51:20;7.32;;;0.93;;
39050;SDS011;24805;55.852;37.644;2023-08-07T07:56:23;7.70;;;0.90;;
39050;SDS011;24805;55.852;37.644;2023-08-07T08:01:26;5.35;;;0.90;;
39050;SDS011;24805;55.852;37.644;2023-08-07T08:06:28;2.67;;;0.63;;
39050;SDS011;24805;55.852;37.644;2023-08-07T08:11:32;3.92;;;0.80;;
39050;SDS011;24805;55.852;37.644;2023-08-07T08:16:35;6.63;;;1.35;;
39050;SDS011;24805;55.852;37.644;2023-08-07T08:21:37;5.10;;;0.95;;
39050;SDS011;24805;55.852;37.644;2023-08-07T08:26:42;8.07;;;1.00;;
39050;SDS011;24805;55.852;37.644;2023-08-07T08:31:44;6.18;;;0.80;;
39050;SDS011;24805;55.852;37.644;2023-08-07T08:36:47;3.55;;;0.77;;
39050;SDS011;24805;55.852;37.644;2023-08-07T08:41:49;5.13;;;0.85;;
39050;SDS011;24805;55.852;37.644;2023-08-07T08:46:52;5.75;;;1.00;;
39050;SDS011;24805;55.852;37.644;2023-08-07T08:51:58;2.53;;;0.80;;
39050;SDS011;24805;55.852;37.644;2023-08-07T08:57:01;6.10;;;0.80;;
39050;SDS011;24805;55.852;37.644;2023-08-07T09:02:05;6.88;;;0.80;;
39050;SDS011;24805;55.852;37.644;2023-08-07T09:07:09;4.82;;;1.00;;
39050;SDS011;24805;55.852;37.644;2023-08-07T09:12:16;3.38;;;0.68;;
39050;SDS011;24805;55.852;37.644;2023-08-07T09:17:29;6.25;;;1.15;;
39050;SDS011;24805;55.852;37.644;2023-08-07T09:22:36;6.72;;;0.90;;
39050;SDS011;24805;55.852;37.644;2023-08-07T09:27:40;7.45;;;1.00;;
39050;SDS011;24805;55.852;37.644;2023-08-07T09:32:43;6.85;;;1.00;;
39050;SDS011;24805;55.852;37.644;2023-08-07T09:37:50;3.75;;;0.68;;
39050;SDS011;24805;55.852;37.644;2023-08-07T09:42:53;7.72;;;1.40;;
39050;SDS011;24805;55.852;37.644;2023-08-07T09:48:00;11.55;;;1.45;;
39050;SDS011;24805;55.852;37.644;2023-08-07T09:53:05;11.17;;;1.47;;
39050;SDS011;24805;55.852;37.644;2023-08-07T09:58:08;11.40;;;1.70;;
39050;SDS011;24805;55.852;37.644;2023-08-07T10:03:14;4.22;;;1.15;;
39050;SDS011;24805;55.852;37.644;2023-08-07T10:08:17;1.42;;;0.70;;
39050;SDS011;24805;55.852;37.644;2023-08-07T10:13:21;3.50;;;1.10;;
39050;SDS011;24805;55.852;37.644;2023-08-07T10:18:39;6.95;;;1.83;;
39050;SDS011;24805;55.852;37.644;2023-08-07T10:23:42;3.25;;;0.95;;
39050;SDS011;24805;55.852;37.644;2023-08-07T10:28:46;7.53;;;1.00;;
39050;SDS011;24805;55.852;37.644;2023-08-07T10:33:51;5.60;;;0.93;;
39050;SDS011;24805;55.852;37.644;2023-08-07T10:39:15;1.70;;;0.60;;
39050;SDS011;24805;55.852;37.644;2023-08-07T10:44:18;4.93;;;1.10;;
39050;SDS011;24805;55.852;37.644;2023-08-07T10:49:32;4.80;;;0.77;;
39050;SDS011;24805;55.852;37.644;2023-08-07T10:54:46;3.22;;;0.60;;
39050;SDS011;24805;55.852;37.644;2023-08-07T11:04:58;9.02;;;1.50;;
39050;SDS011;24805;55.852;37.644;2023-08-07T11:10:01;4.80;;;1.67;;
39050;SDS011;24805;55.852;37.644;2023-08-07T11:15:05;8.77;;;1.85;;
39050;SDS011;24805;55.852;37.644;2023-08-07T11:20:08;6.32;;;1.20;;
39050;SDS011;24805;55.852;37.644;2023-08-07T11:25:13;6.70;;;1.35;;
39050;SDS011;24805;55.852;37.644;2023-08-07T11:30:17;12.90;;;1.40;;
39050;SDS011;24805;55.852;37.644;2023-08-07T11:35:20;7.13;;;4.32;;
39050;SDS011;24805;55.852;37.644;2023-08-07T11:40:24;3.63;;;1.00;;
39050;SDS011;24805;55.852;37.644;2023-08-07T11:45:27;4.63;;;0.90;;
39050;SDS011;24805;55.852;37.644;2023-08-07T11:50:31;1.83;;;0.70;;
39050;SDS011;24805;55.852;37.644;2023-08-07T11:55:34;4.57;;;1.20;;
39050;SDS011;24805;55.852;37.644;2023-08-07T12:00:36;3.55;;;0.98;;
39050;SDS011;24805;55.852;37.644;2023-08-07T12:05:40;2.75;;;0.85;;
39050;SDS011;24805;55.852;37.644;2023-08-07T12:10:48;3.95;;;1.10;;
39050;SDS011;24805;55.852;37.644;2023-08-07T12:15:56;5.32;;;1.10;;
39050;SDS011;24805;55.852;37.644;2023-08-07T12:21:00;5.57;;;1.10;;
39050;SDS011;24805;55.852;37.644;2023-08-07T12:26:06;4.30;;;0.90;;
39050;SDS011;24805;55.852;37.644;2023-08-07T12:31:09;2.85;;;0.90;;
39050;SDS011;24805;55.852;37.644;2023-08-07T12:36:12;16.50;;;11.82;;
39050;SDS011;24805;55.852;37.644;2023-08-07T12:41:19;5.40;;;0.90;;
39050;SDS011;24805;55.852;37.644;2023-08-07T12:46:25;3.70;;;1.10;;
39050;SDS011;24805;55.852;37.644;2023-08-07T12:51:31;3.88;;;1.33;;
39050;SDS011;24805;55.852;37.644;2023-08-07T12:56:33;2.33;;;0.85;;
39050;SDS011;24805;55.852;37.644;2023-08-07T13:01:36;6.97;;;1.00;;
39050;SDS011;24805;55.852;37.644;2023-08-07T13:06:39;5.95;;;0.80;;
39050;SDS011;24805;55.852;37.644;2023-08-07T13:11:42;5.25;;;1.00;;
39050;SDS011;24805;55.852;37.644;2023-08-07T13:16:45;8.07;;;1.25;;
39050;SDS011;24805;55.852;37.644;2023-08-07T13:21:48;4.78;;;0.93;;
39050;SDS011;24805;55.852;37.644;2023-08-07T13:26:51;3.25;;;1.35;;
39050;SDS011;24805;55.852;37.644;2023-08-07T13:31:53;1.70;;;1.00;;
39050;SDS011;24805;55.852;37.644;2023-08-07T13:36:56;4.60;;;1.00;;
39050;SDS011;24805;55.852;37.644;2023-08-07T13:42:01;5.18;;;1.27;;
39050;SDS011;24805;55.852;37.644;2023-08-07T13:47:04;4.00;;;1.20;;
39050;SDS011;24805;55.852;37.644;2023-08-07T13:52:07;2.75;;;1.17;;
39050;SDS011;24805;55.852;37.644;2023-08-07T13:57:09;2.65;;;1.00;;
39050;SDS011;24805;55.852;37.644;2023-08-07T14:02:12;6.57;;;1.45;;
39050;SDS011;24805;55.852;37.644;2023-08-07T14:07:15;5.97;;;1.55;;
39050;SDS011;24805;55.852;37.644;2023-08-07T14:12:18;5.47;;;2.30;;
39050;SDS011;24805;55.852;37.644;2023-08-07T14:17:20;5.32;;;1.60;;
39050;SDS011;24805;55.852;37.644;2023-08-07T14:22:23;5.13;;;1.65;;
39050;SDS011;24805;55.852;37.644;2023-08-07T14:27:25;4.63;;;1.10;;
39050;SDS011;24805;55.852;37.644;2023-08-07T14:32:28;6.47;;;1.58;;
39050;SDS011;24805;55.852;37.644;2023-08-07T14:37:31;5.45;;;1.58;;
39050;SDS011;24805;55.852;37.644;2023-08-07T14:42:33;2.00;;;1.25;;
39050;SDS011;24805;55.852;37.644;2023-08-07T14:47:36;3.92;;;1.30;;
39050;SDS011;24805;55.852;37.644;2023-08-07T14:52:39;3.92;;;1.50;;
39050;SDS011;24805;55.852;37.644;2023-08-07T14:57:41;4.93;;;1.50;;
39050;SDS011;24805;55.852;37.644;2023-08-07T15:02:44;6.43;;;1.70;;
39050;SDS011;24805;55.852;37.644;2023-08-07T15:07:47;4.50;;;2.33;;
39050;SDS011;24805;55.852;37.644;2023-08-07T15:12:49;5.65;;;1.52;;
39050;SDS011;24805;55.852;37.644;2023-08-07T15:17:52;3.40;;;1.25;;
39050;SDS011;24805;55.852;37.644;2023-08-07T15:22:55;2.50;;;1.50;;
39050;SDS011;24805;55.852;37.644;2023-08-07T15:27:57;5.25;;;1.40;;
39050;SDS011;24805;55.852;37.644;2023-08-07T15:33:02;4.25;;;1.40;;
39050;SDS011;24805;55.852;37.644;2023-08-07T15:38:05;6.15;;;1.45;;
39050;SDS011;24805;55.852;37.644;2023-08-07T15:43:08;4.40;;;1.50;;
39050;SDS011;24805;55.852;37.644;2023-08-07T15:48:12;3.42;;;1.48;;
39050;SDS011;24805;55.852;37.644;2023-08-07T15:53:15;5.55;;;1.60;;
39050;SDS011;24805;55.852;37.644;2023-08-07T15:58:18;3.85;;;1.63;;
39050;SDS011;24805;55.852;37.644;2023-08-07T16:03:21;3.33;;;1.50;;
39050;SDS011;24805;55.852;37.644;2023-08-07T16:08:24;6.90;;;3.97;;
39050;SDS011;24805;55.852;37.644;2023-08-07T16:13:27;4.72;;;1.67;;
39050;SDS011;24805;55.852;37.644;2023-08-07T16:18:31;3.38;;;1.17;;
39050;SDS011;24805;55.852;37.644;2023-08-07T16:23:34;4.45;;;1.70;;
39050;SDS011;24805;55.852;37.644;2023-08-07T16:28:37;3.17;;;1.40;;
39050;SDS011;24805;55.852;37.644;2023-08-07T16:33:40;4.53;;;1.30;;
39050;SDS011;24805;55.852;37.644;2023-08-07T16:38:43;6.65;;;1.80;;
39050;SDS011;24805;55.852;37.644;2023-08-07T16:43:45;8.27;;;5.40;;
39050;SDS011;24805;55.852;37.644;2023-08-07T16:48:48;8.15;;;2.65;;
39050;SDS011;24805;55.852;37.644;2023-08-07T16:53:51;5.07;;;1.83;;
39050;SDS011;24805;55.852;37.644;2023-08-07T16:58:53;3.30;;;1.90;;
39050;SDS011;24805;55.852;37.644;2023-08-07T17:03:56;3.70;;;1.80;;
39050;SDS011;24805;55.852;37.644;2023-08-07T17:08:59;7.03;;;2.45;;
39050;SDS011;24805;55.852;37.644;2023-08-07T17:14:02;9.20;;;2.17;;
39050;SDS011;24805;55.852;37.644;2023-08-07T17:19:05;7.60;;;2.40;;
39050;SDS011;24805;55.852;37.644;2023-08-07T17:24:08;11.57;;;3.80;;
39050;SDS011;24805;55.852;37.644;2023-08-07T17:29:11;7.97;;;2.65;;
39050;SDS011;24805;55.852;37.644;2023-08-07T17:34:15;13.25;;;3.83;;
39050;SDS011;24805;55.852;37.644;2023-08-07T17:39:17;13.18;;;3.53;;
39050;SDS011;24805;55.852;37.644;2023-08-07T17:44:20;10.55;;;2.88;;
39050;SDS011;24805;55.852;37.644;2023-08-07T17:49:23;10.57;;;3.20;;
39050;SDS011;24805;55.852;37.644;2023-08-07T17:54:25;8.57;;;2.47;;
39050;SDS011;24805;55.852;37.644;2023-08-07T17:59:28;7.20;;;2.45;;
39050;SDS011;24805;55.852;37.644;2023-08-07T18:04:30;4.28;;;2.03;;
39050;SDS011;24805;55.852;37.644;2023-08-07T18:09:33;6.30;;;2.58;;
39050;SDS011;24805;55.852;37.644;2023-08-07T18:14:35;5.13;;;1.98;;
39050;SDS011;24805;55.852;37.644;2023-08-07T18:19:38;5.10;;;2.33;;
39050;SDS011;24805;55.852;37.644;2023-08-07T18:24:40;8.23;;;4.65;;
39050;SDS011;24805;55.852;37.644;2023-08-07T18:29:43;5.35;;;2.22;;
39050;SDS011;24805;55.852;37.644;2023-08-07T18:34:46;2.80;;;1.83;;
39050;SDS011;24805;55.852;37.644;2023-08-07T18:39:48;5.55;;;2.10;;
39050;SDS011;24805;55.852;37.644;2023-08-07T18:44:50;2.92;;;2.00;;
39050;SDS011;24805;55.852;37.644;2023-08-07T18:49:53;6.15;;;2.50;;
39050;SDS011;24805;55.852;37.644;2023-08-07T18:54:55;4.20;;;2.80;;
39050;SDS011;24805;55.852;37.644;2023-08-07T18:59:58;5.25;;;2.50;;
39050;SDS011;24805;55.852;37.644;2023-08-07T19:05:01;9.02;;;2.92;;
39050;SDS011;24805;55.852;37.644;2023-08-07T19:10:04;11.02;;;3.10;;
39050;SDS011;24805;55.852;37.644;2023-08-07T19:15:07;11.93;;;2.83;;
39050;SDS011;24805;55.852;37.644;2023-08-07T19:20:15;14.52;;;3.85;;
39050;SDS011;24805;55.852;37.644;2023-08-07T19:25:19;8.75;;;3.50;;
39050;SDS011;24805;55.852;37.644;2023-08-07T19:30:21;11.65;;;3.50;;
39050;SDS011;24805;55.852;37.644;2023-08-07T19:35:23;11.35;;;3.80;;
39050;SDS011;24805;55.852;37.644;2023-08-07T19:40:26;18.77;;;5.30;;
39050;SDS011;24805;55.852;37.644;2023-08-07T19:45:29;12.90;;;4.05;;
39050;SDS011;24805;55.852;37.644;2023-08-07T19:50:31;14.23;;;5.50;;
39050;SDS011;24805;55.852;37.644;2023-08-07T19:55:34;10.75;;;4.25;;
39050;SDS011;24805;55.852;37.644;2023-08-07T20:00:36;9.45;;;3.63;;
39050;SDS011;24805;55.852;37.644;2023-08-07T20:05:39;7.57;;;2.50;;
39050;SDS011;24805;55.852;37.644;2023-08-07T20:10:42;4.72;;;2.45;;
39050;SDS011;24805;55.852;37.644;2023-08-07T20:15:45;4.97;;;2.42;;
39050;SDS011;24805;55.852;37.644;2023-08-07T20:20:47;6.10;;;2.78;;
39050;SDS011;24805;55.852;37.644;2023-08-07T20:25:49;4.55;;;2.60;;
39050;SDS011;24805;55.852;37.644;2023-08-07T20:30:52;5.15;;;2.53;;
39050;SDS011;24805;55.852;37.644;2023-08-07T20:35:54;5.90;;;2.88;;
39050;SDS011;24805;55.852;37.644;2023-08-07T20:40:56;4.35;;;2.60;;
39050;SDS011;24805;55.852;37.644;2023-08-07T20:45:59;4.07;;;1.75;;
39050;SDS011;24805;55.852;37.644;2023-08-07T20:51:01;6.13;;;3.10;;
39050;SDS011;24805;55.852;37.644;2023-08-07T20:56:04;13.23;;;3.50;;
39050;SDS011;24805;55.852;37.644;2023-08-07T21:01:06;8.30;;;2.83;;
39050;SDS011;24805;55.852;37.644;2023-08-07T21:06:09;7.22;;;3.38;;
39050;SDS011;24805;55.852;37.644;2023-08-07T21:11:11;10.70;;;5.07;;
39050;SDS011;24805;55.852;37.644;2023-08-07T21:16:13;10.23;;;3.05;;
39050;SDS011;24805;55.852;37.644;2023-08-07T21:21:17;11.05;;;3.17;;
39050;SDS011;24805;55.852;37.644;2023-08-07T21:26:19;4.57;;;2.75;;
39050;SDS011;24805;55.852;37.644;2023-08-07T21:31:22;3.22;;;1.80;;
39050;SDS011;24805;55.852;37.644;2023-08-07T21:36:24;3.33;;;1.77;;
39050;SDS011;24805;55.852;37.644;2023-08-07T21:41:26;7.03;;;2.95;;
39050;SDS011;24805;55.852;37.644;2023-08-07T21:46:29;9.38;;;4.10;;
39050;SDS011;24805;55.852;37.644;2023-08-07T21:51:31;5.22;;;2.80;;
39050;SDS011;24805;55.852;37.644;2023-08-07T21:56:34;7.07;;;2.38;;
39050;SDS011;24805;55.852;37.644;2023-08-07T22:01:36;5.63;;;2.40;;
39050;SDS011;24805;55.852;37.644;2023-08-07T22:06:39;6.72;;;1.85;;
39050;SDS011;24805;55.852;37.644;2023-08-07T22:11:42;6.30;;;2.03;;
39050;SDS011;24805;55.852;37.644;2023-08-07T22:16:44;4.68;;;1.85;;
39050;SDS011;24805;55.852;37.644;2023-08-07T22:21:46;3.25;;;2.33;;
39050;SDS011;24805;55.852;37.644;2023-08-07T22:26:50;5.28;;;2.72;;
39050;SDS011;24805;55.852;37.644;2023-08-07T22:31:52;4.10;;;2.40;;
39050;SDS011;24805;55.852;37.644;2023-08-07T22:36:54;4.38;;;2.00;;
39050;SDS011;24805;55.852;37.644;2023-08-07T22:41:57;9.18;;;2.03;;
39050;SDS011;24805;55.852;37.644;2023-08-07T22:46:59;7.93;;;2.20;;
39050;SDS011;24805;55.852;37.644;2023-08-07T22:52:02;2.10;;;1.77;;
39050;SDS011;24805;55.852;37.644;2023-08-07T22:57:04;4.32;;;1.95;;
39050;SDS011;24805;55.852;37.644;2023-08-07T23:02:07;4.78;;;2.50;;
39050;SDS011;24805;55.852;37.644;2023-08-07T23:07:09;3.25;;;1.88;;
39050;SDS011;24805;55.852;37.644;2023-08-07T23:12:11;6.45;;;3.00;;
39050;SDS011;24805;55.852;37.644;2023-08-07T23:17:17;8.60;;;3.67;;
39050;SDS011;24805;55.852;37.644;2023-08-07T23:22:19;7.10;;;3.55;;
39050;SDS011;24805;55.852;37.644;2023-08-07T23:27:22;8.63;;;4.55;;
39050;SDS011;24805;55.852;37.644;2023-08-07T23:32:24;11.23;;;4.10;;
39050;SDS011;24805;55.852;37.644;2023-08-07T23:37:26;10.50;;;3.63;;
39050;SDS011;24805;55.852;37.644;2023-08-07T23:42:28;3.05;;;2.35;;
39050;SDS011;24805;55.852;37.644;2023-08-07T23:47:31;7.38;;;2.53;;
39050;SDS011;24805;55.852;37.644;2023-08-07T23:52:33;7.18;;;2.67;;
39050;SDS011;24805;55.852;37.644;2023-08-07T23:57:35;5.47;;;2.20;;
